Grand Island, Nebraska
Current Conditions -  °F | °C
As of 8:53 PM on Thursday 18 Dec 2014 (Local Time) from KGRI Reporting Station
Overcast Overcast  
Wind Chill: 20°   Ceiling: 1100
Heat Index: 29°   Visibility: 10mi
Dew Point: 25°   Wind: 9mph
Humidity: 85%   Direction: 250°WSW
Pressure: 30.18"   Gusts: NA
Location:  40.92°N, 98.34°W
Report Text: KGRI 190253Z AUTO 25008KT 10SM OVC011 M02/M04 A3018 RMK AO2 SLP248 T10171039 51008
Loading
Personal Weather Stations






























Interactive Weather Map New forecast layout! Learn more

10-Day Weather Forecast

Advertisements
Track Severe Weather on mobile